• Join FlightAware (Why Join?)
  • Login
  • US Flag 
 
07:31PM EST


 

Airport Tracker/Info


-or-


 

Live Flight TrackerFlight Track Log ✈ VH-VQB ✈ 28-Apr-2013 ✈ YSSY / SYD - YMLT / LST

Flight Track Log - Related Links

Times and Time Zones

All times are in EDT time to prevent confusion due to time zone crossing. See the VH-VQB flight status page for this flight to view local times or setup timezone preferences in your user account.

Time Position Orientation Groundspeed Altitude Reporting Facility
EDT Latitude Longitude Course Direction KTS MPH feet Rate Location/Type
05:51PM -33.9650 151.1900 168° South 15 17  Level FlightAware
05:51PM -33.9670 151.1910 157° South 18 21 120 Level FlightAware
05:52PM -33.9700 151.1910 180° South 11 13 120 Level FlightAware
05:54PM -34.1085 151.1256 201° Southwest  Level Estimated
05:54PM -33.9710 151.1920 201° Southwest 10 12  Level FlightAware
05:54PM -33.9710 151.1930 90° East 2 2 300 Level FlightAware
05:56PM -33.9700 151.1940 40° Northeast 16 18 360 Level FlightAware
05:57PM -33.9570 151.1900 346° North 150 173 1,080 Level FlightAware
05:57PM -33.9430 151.1870 350° North 149 171 900 2,400 Climbing FlightAware
05:57PM -33.9320 151.1960 34° Northeast 166 191 1,600 1,980 Climbing FlightAware
05:57PM -33.9300 151.2050 75° East 168 193 1,900 2,160 Climbing FlightAware
05:58PM -33.9340 151.2240 104° East 171 197 2,700 1,680 Climbing FlightAware
05:58PM -33.9400 151.2470 107° East 197 227 3,200 1,200 Climbing FlightAware
05:59PM -33.9380 151.3030 88° East 264 304 4,100 1,560 Climbing FlightAware
05:59PM -33.9368 151.3453 88° East 274 315 4,900 1,740 Climbing Aus ATC (RADAR)
05:59PM -33.9447 151.3716 110° East 299 344 5,100  Climbing Aus ATC (RADAR)
06:00PM -33.9460 151.3750 110° East 340 391 4,900 -600 Descending FlightAware
06:00PM -33.9630 151.3970 133° Southeast 365 420 4,900  Level FlightAware
06:00PM -34.0040 151.4350 142° Southeast 374 430 4,900 480 Level FlightAware
06:01PM -34.0230 151.4540 140° Southeast 370 426 5,300 4,320 Climbing FlightAware
06:01PM -34.0683 151.4972 140° Southeast 370 426 8,000 4,800 Climbing Aus ATC (RADAR)
06:01PM -34.0640 151.4930 140° Southeast 367 422 7,700 1,680 Descending FlightAware
06:02PM -34.1080 151.5240 150° Southeast 384 442 8,900 3,000 Climbing FlightAware
06:02PM -34.1760 151.5110 189° South 369 425 11,200 3,480 Climbing FlightAware
06:03PM -34.2210 151.4877 189° South 370 426 12,600 3,120 Climbing Aus ATC (RADAR)
06:03PM -34.2456 151.4748 203° Southwest 377 434 13,200 1,620 Climbing Aus ATC (RADAR)
06:03PM -34.2480 151.4730 203° Southwest 387 445 13,200 3,000 Level FlightAware
06:03PM -34.2953 151.4498 203° Southwest 383 441 14,700 3,300 Climbing Aus ATC (RADAR)
06:04PM -34.3150 151.4400 203° Southwest 381 438 15,400 3,240 Climbing FlightAware
06:04PM -34.3769 151.4092 203° Southwest 378 435 17,400 2,820 Climbing Aus ATC (RADAR)
06:04PM -34.3800 151.4070 203° Southwest 386 444 17,300 2,280 Descending FlightAware
06:05PM -34.4607 151.3669 203° Southwest 390 449 19,300 1,980 Climbing Aus ATC (RADAR)
06:05PM -34.4440 151.3750 203° Southwest 395 455 18,800 1,680 Descending FlightAware
06:06PM -34.5150 151.3400 202° Southwest 402 463 20,500 2,940 Climbing FlightAware
06:06PM -34.5726 151.3107 202° Southwest 400 460 21,900 2,100 Climbing Aus ATC (RADAR)
06:06PM -34.5840 151.3050 202° Southwest 406 467 21,900 1,140 Level FlightAware
06:07PM -34.6570 151.2680 203° Southwest 418 481 23,100 1,920 Climbing FlightAware
06:08PM -34.7516 151.2196 203° Southwest 427 491 24,600 1,500 Climbing Aus ATC (RADAR)
06:08PM -34.7310 151.2300 203° Southwest 429 494 24,100 1,620 Descending FlightAware
06:09PM -34.8110 151.1890 203° Southwest 428 493 25,900 1,920 Climbing FlightAware
06:09PM -34.8900 151.1490 203° Southwest 436 502 26,900 1,320 Climbing FlightAware
06:10PM -34.9650 151.1110 203° Southwest 446 513 27,700 1,740 Climbing FlightAware
06:10PM -35.0326 151.0765 203° Southwest 446 513 28,700 1,500 Climbing Aus ATC (RADAR)
06:11PM -35.0430 151.0710 203° Southwest 450 518 28,700 1,320 Level FlightAware
06:11PM -35.1220 151.0310 202° Southwest 446 513 30,000 1,860 Climbing FlightAware
06:12PM -35.2130 150.9840 203° Southwest 441 507 31,500 2,100 Climbing FlightAware
06:13PM -35.3070 150.9350 203° Southwest 429 494 33,200 1,800 Climbing FlightAware
06:13PM -35.3890 150.8930 203° Southwest 428 493 34,100 1,440 Climbing FlightAware
06:14PM -35.4513 150.8617 203° Southwest 422 486 35,100 1,800 Climbing Aus ATC (RADAR)
06:14PM -35.4630 150.8550 203° Southwest 416 479 35,300 1,080 Climbing FlightAware
06:15PM -35.5340 150.8180 203° Southwest 417 480 36,000 480 Climbing FlightAware
06:16PM -35.6150 150.7770 202° Southwest 427 491 36,000  Level FlightAware
06:16PM -35.6810 150.7420 203° Southwest 431 496 36,000  Level FlightAware
06:17PM -35.7440 150.7100 202° Southwest 425 489 36,000 60 Level FlightAware
06:17PM -35.8205 150.6695 202° Southwest 421 484 36,100  Climbing Aus ATC (RADAR)
06:18PM -35.8130 150.6730 202° Southwest 418 481 36,000 -120 Descending FlightAware
06:18PM -35.8910 150.6320 203° Southwest 416 479 36,000 600 Level FlightAware
06:19PM -35.9620 150.5952 203° Southwest 416 479 36,700 900 Climbing Aus ATC (RADAR)
06:19PM -35.9680 150.5920 203° Southwest 419 482 36,600 840 Descending FlightAware
06:20PM -36.0560 150.5460 203° Southwest 414 476 37,600 900 Climbing FlightAware
06:20PM -36.1120 150.5160 203° Southwest 418 481 37,900 300 Climbing FlightAware
06:21PM -36.1860 150.4780 203° Southwest 411 473 38,000 60 Climbing FlightAware
06:22PM -36.2660 150.4350 203° Southwest 416 479 38,000  Level FlightAware
06:22PM -36.3380 150.3980 202° Southwest 413 475 38,000  Level FlightAware
06:23PM -36.4210 150.3530 204° Southwest 408 470 38,000  Level FlightAware
06:24PM -36.4840 150.3200 203° Southwest 406 467 38,000 60 Level FlightAware
06:25PM -36.5928 150.2613 203° Southwest 405 466 38,100  Climbing Aus ATC (RADAR)
06:25PM -36.5740 150.2720 203° Southwest 404 465 38,000 -180 Descending FlightAware
06:26PM -36.6610 150.2260 203° Southwest 398 458 38,000 120 Level FlightAware
06:26PM -36.7364 150.1846 203° Southwest 395 455 38,200  Climbing Aus ATC (RADAR)
06:26PM -36.7620 150.1710 203° Southwest 394 453 38,000 -240 Descending FlightAware
06:27PM -36.8290 150.1360 203° Southwest 394 453 38,000 120 Level FlightAware
06:28PM -36.9201 150.0865 203° Southwest 392 451 38,200  Climbing Aus ATC (RADAR)
06:28PM -36.9240 150.0840 203° Southwest 395 455 38,000 -240 Descending FlightAware
06:29PM -37.0040 150.0410 203° Southwest 389 448 38,000  Level FlightAware
06:29PM -37.0640 150.0090 203° Southwest 390 449 38,000 120 Level FlightAware
06:30PM -37.1308 149.9728 203° Southwest 398 458 38,200  Climbing Aus ATC (RADAR)
06:30PM -37.1340 149.9710 203° Southwest 390 449 38,000  Descending FlightAware
06:31PM -37.1814 149.9445 203° Southwest 398 458 38,200 300 Climbing Aus ATC (RADAR)
06:31PM -37.2066 149.9303 204° Southwest 398 458 38,200 -840 Level Aus ATC (RADAR)
06:31PM -37.1980 149.9360 204° Southwest 397 457 38,000  Descending FlightAware
06:31PM -37.2570 149.9042 204° Southwest 395 455 38,200  Climbing Aus ATC (RADAR)
06:32PM -37.2840 149.8900 204° Southwest 400 460 38,000  Descending FlightAware
06:32PM -37.3423 149.8579 204° Southwest 400 460 38,200  Climbing Aus ATC (RADAR)
06:32PM -37.3540 149.8520 204° Southwest 402 463 38,000  Descending FlightAware
06:33PM -37.4274 149.8111 204° Southwest 403 464 38,200  Climbing Aus ATC (RADAR)
06:33PM -37.4290 149.8110 204° Southwest 403 464 38,000 -300 Descending FlightAware
06:34PM -37.4990 149.7720 204° Southwest 402 463 38,000 180 Level FlightAware
06:34PM -37.5297 149.7552 204° Southwest 401 461 38,200  Climbing Aus ATC (RADAR)
06:34PM -37.5750 149.7310 204° Southwest 401 461 38,000 -180 Descending FlightAware
06:35PM -37.6061 149.7135 204° Southwest 400 460 38,100  Climbing Aus ATC (RADAR)
06:35PM -37.6400 149.6910 204° Southwest 397 457 38,000 120 Descending FlightAware
06:35PM -37.6709 149.6694 204° Southwest 396 456 38,200 360 Climbing Aus ATC (RADAR)
06:36PM -37.6955 149.6550 205° Southwest 397 457 38,200 -480 Level Aus ATC (RADAR)
06:36PM -37.7070 149.6460 205° Southwest 399 459 38,000  Descending FlightAware
06:36PM -37.7450 149.6199 205° Southwest 402 463 38,200  Climbing Aus ATC (RADAR)
06:37PM -37.7800 149.5990 205° Southwest 399 459 38,000  Descending FlightAware
06:37PM -37.8258 149.5706 205° Southwest 392 451 38,200 300 Climbing Aus ATC (RADAR)
06:37PM -37.8506 149.5541 208° Southwest 397 457 38,200 -840 Level Aus ATC (RADAR)
06:37PM -37.8470 149.5550 208° Southwest 401 461 38,000  Descending FlightAware
06:38PM -37.9088 149.5127 208° Southwest 409 471 38,200  Climbing Aus ATC (RADAR)
06:38PM -37.9200 149.5060 208° Southwest 402 463 38,000 -300 Descending FlightAware
06:39PM -37.9909 149.4588 208° Southwest 401 461 38,000  Level Aus ATC (RADAR)
06:39PM -37.9860 149.4620 208° Southwest 403 464 38,000  Level FlightAware
06:39PM -38.0520 149.4190 207° Southwest 404 465 38,000  Level FlightAware
06:40PM -38.1260 149.3700 208° Southwest 399 459 38,000  Level FlightAware
06:40PM -38.1728 149.3374 208° Southwest 406 467 38,000  Level Aus ATC (RADAR)
06:41PM -38.1940 149.3240 208° Southwest 401 461 38,000  Level FlightAware
06:41PM -38.2307 149.2988 208° Southwest 408 470 38,000  Level Aus ATC (RADAR)
06:41PM -38.2680 149.2750 208° Southwest 401 461 38,000  Level FlightAware
06:42PM -38.3142 149.2434 208° Southwest 408 470 38,000  Level Aus ATC (RADAR)
06:42PM -38.3392 149.2265 208° Southwest 408 470 38,000  Level Aus ATC (RADAR)
06:42PM -38.3360 149.2290 208° Southwest 403 464 38,000  Level FlightAware
06:43PM -38.3895 149.1928 208° Southwest 410 472 38,000  Level Aus ATC (RADAR)
06:43PM -38.4020 149.1850 208° Southwest 405 466 38,000  Level FlightAware
06:43PM -38.4640 149.1430 208° Southwest 405 466 38,000  Level FlightAware
06:44PM -38.4820 149.1307 208° Southwest 411 473 38,000  Level Aus ATC (RADAR)
06:44PM -38.5324 149.0965 208° Southwest 411 473 38,000  Level Aus ATC (RADAR)
06:44PM -38.5460 149.0880 208° Southwest 404 465 38,000  Level FlightAware
06:45PM -38.6075 149.0454 208° Southwest 410 472 38,000  Level Aus ATC (RADAR)
06:45PM -38.6110 149.0440 208° Southwest 403 464 38,000  Level FlightAware
06:46PM -38.6831 148.9942 208° Southwest 412 474 38,000  Level Aus ATC (RADAR)
06:46PM -38.7338 148.9599 208° Southwest 413 475 38,000  Level Aus ATC (RADAR)
06:46PM -38.7320 148.9620 208° Southwest 405 466 38,000 120 Level FlightAware
06:47PM -38.8080 148.9100 208° Southwest 401 461 38,100  Climbing FlightAware
06:47PM -38.8422 148.8864 208° Southwest 409 471 38,000 -120 Descending Aus ATC (RADAR)
06:48PM -38.9003 148.8471 208° Southwest 407 468 38,000  Level Aus ATC (RADAR)
06:48PM -38.9640 148.8040 208° Southwest 404 465 38,000  Level FlightAware
06:49PM -39.0157 148.7678 208° Southwest 405 466 38,000 -120 Level Aus ATC (RADAR)
06:49PM -39.0728 148.7284 208° Southwest 402 463 37,900  Descending Aus ATC (RADAR)
06:50PM -39.0810 148.7230 208° Southwest 403 464 38,000 120 Climbing FlightAware
06:50PM -39.1564 148.6712 208° Southwest 408 470 38,000  Level Aus ATC (RADAR)
06:51PM -39.2250 148.6250 208° Southwest 416 479 38,000  Level FlightAware
06:52PM -39.3452 148.5406 208° Southwest 422 486 38,100 60 Climbing Aus ATC (RADAR)
06:52PM -39.3450 148.5420 208° Southwest 406 467 38,100 -180 Level FlightAware
06:53PM -39.4080 148.4990 208° Southwest 405 466 38,000 -180 Descending FlightAware
06:53PM -39.4186 148.4905 208° Southwest 410 472 38,000  Level Aus ATC (RADAR)
06:54PM -39.4850 148.4450 208° Southwest 404 465 38,000  Level FlightAware
06:54PM -39.4957 148.4367 208° Southwest 417 480 38,000  Level Aus ATC (RADAR)
06:54PM -39.5528 148.3972 208° Southwest 410 472 38,000  Level Aus ATC (RADAR)
06:54PM -39.5780 148.3800 208° Southwest 406 467 38,000  Level FlightAware
06:55PM -39.6212 148.3493 208° Southwest 413 475 38,000  Level Aus ATC (RADAR)
06:55PM -39.6370 148.3390 208° Southwest 406 467 38,000  Level FlightAware
06:56PM -39.6964 148.2968 208° Southwest 413 475 38,000  Level Aus ATC (RADAR)
06:56PM -39.7471 148.2610 208° Southwest 415 478 38,000  Level Aus ATC (RADAR)
06:56PM -39.7680 148.2470 208° Southwest 407 468 38,000  Level FlightAware
06:57PM -39.8399 148.1954 208° Southwest 415 478 38,000 60 Level Aus ATC (RADAR)
06:58PM -39.8830 148.1660 208° Southwest 402 463 38,100 -120 Climbing FlightAware
06:59PM -39.9960 148.0860 208° Southwest 405 466 37,900 -120 Descending Aus ATC (RADAR)
06:59PM -40.0000 148.0840 208° Southwest 403 464 38,000  Climbing FlightAware
06:59PM -40.0693 148.0344 208° Southwest 402 463 37,900  Descending Aus ATC (RADAR)
07:00PM -40.1120 148.0070 208° Southwest 407 468 38,000 -780 Climbing FlightAware
07:01PM -40.2161 147.9503 208° Southwest 411 473 36,800 -1,440 Descending Aus ATC (RADAR)
07:01PM -40.2280 147.9440 208° Southwest 401 461 36,500 -3,720 Descending FlightAware
07:02PM -40.3043 147.9029 208° Southwest 414 476 33,700 -3,600 Descending Aus ATC (RADAR)
07:02PM -40.3000 147.9050 208° Southwest 416 479 34,100 -3,240 Climbing FlightAware
07:02PM -40.3851 147.8594 208° Southwest 418 481 31,300 -3,360 Descending Aus ATC (RADAR)
07:02PM -40.3800 147.8610 208° Southwest 423 487 31,600 -2,940 Climbing FlightAware
07:03PM -40.4503 147.8228 208° Southwest 427 491 29,600 -4,260 Descending Aus ATC (RADAR)
07:04PM -40.5421 147.7725 203° Southwest 429 494 25,800 -4,380 Descending Aus ATC (RADAR)
07:04PM -40.5721 147.7558 203° Southwest 437 503 24,900 -3,180 Descending Aus ATC (RADAR)
07:05PM -40.6468 147.7152 202° Southwest 435 501 22,900 -2,940 Descending Aus ATC (RADAR)
07:06PM -40.7457 147.6612 202° Southwest 418 481 20,300 -2,940 Descending Aus ATC (RADAR)
07:06PM -40.8330 147.6129 203° Southwest 405 466 17,900 -2,880 Descending Aus ATC (RADAR)
07:07PM -40.9169 147.5666 203° Southwest 391 450 15,600 -3,000 Descending Aus ATC (RADAR)
07:08PM -40.9741 147.5348 203° Southwest 384 442 13,700 -2,880 Descending Aus ATC (RADAR)
07:09PM -41.1154 147.4565 203° Southwest 359 413 9,700 -2,520 Descending Aus ATC (RADAR)
07:10PM -41.1580 147.4330 203° Southwest 351 404 8,500 -2,400 Descending FlightAware
07:10PM -41.1972 147.4106 203° Southwest 342 394 7,500 -1,200 Descending Aus ATC (RADAR)
07:11PM -41.2626 147.3747 202° Southwest 266 306 7,000 -360 Descending Aus ATC (RADAR)
07:12PM -41.2922 147.3574 204° Southwest 237 273 7,000  Level Aus ATC (RADAR)
07:12PM -41.3056 147.3496 204° Southwest 222 255 7,000  Level Aus ATC (RADAR)
07:12PM -41.3347 147.3326 204° Southwest 199 229 7,000 -840 Level Aus ATC (RADAR)
07:13PM -41.3815 147.3055 203° Southwest 202 232 5,800 -1,380 Descending Aus ATC (RADAR)
07:14PM -41.3945 147.2979 204° Southwest 204 235 5,400 -1,560 Descending Aus ATC (RADAR)
07:14PM -41.4261 147.2802 203° Southwest 210 242 4,500 -1,320 Descending Aus ATC (RADAR)
07:15PM -41.4867 147.2612 193° South 197 227 3,200 -960 Descending Aus ATC (RADAR)
07:16PM -41.5388 147.2708 172° South 215 247 2,700 -540 Descending Aus ATC (RADAR)
07:17PM -41.5726 147.2934 153° Southeast 198 228 2,400 -600 Descending Aus ATC (RADAR)
07:17PM -41.6019 147.2852 192° South 201 231 2,000 -360 Descending Aus ATC (RADAR)
07:18PM -41.6030 147.2570 192° South 134 154 2,000 -600 Level FlightAware
07:18PM -41.5891 147.2482 192° South 116 133 1,500 -1,020 Descending Aus ATC (RADAR)
07:19PM -41.5648 147.2273 327° Northwest 122 140 900 -720 Descending Aus ATC (RADAR)
07:20PM -41.5431 147.2092 328° Northwest 123 142 400 -720 Descending Aus ATC (RADAR)
07:22PM -41.5453 147.2142 154° Southeast  Level FlightAware Approximate
07:29PM -41.5453 147.2142 154° Southeast  Level Estimated
07:30PM -41.5453 147.2142 154° Southeast  Level Estimated